Share

Gassaway, WV

Frame Circle (KWVGASSA1) Elev 945 ft | 38.66 °N, 80.75 °W | Change Station

Current weather conditions updated 1 second ago

Clear
Clear
70.4 °F
Feels Like 76 °F
N
2.8
Wind Variable Wind from WSW
Gusts 8.0 mph
Sunrise 6:42 AM
Sunset 8:02 PM
Moon Waning Gibbous

Today is forecast to be nearly the same temperature as yesterday.

Pressure 30.30 in
Visibility 10.0 miles
Clouds Clear
Heat Index 76 °F
Dew Point 35 °F
Humidity 27%
Rainfall 0.00 in
Snow Depth Not available.
UV 10 out of 16
Pollen 9.60 out of 12
Air Quality Not available.
Flu Activity Sporadic
METAR KW22 181655Z AUTO 23005KT 10SM CLR 18/M02 A3030 RMK AO2

More Conditions Fewer Conditions

Pressure 30.30 in
Visibility 10.0 miles
Clouds Clear
Heat Index 76 °F
Dew Point 35 °F
Humidity 27%
Rainfall 0.00 in
Snow Depth Not available.
UV 10 out of 16
Pollen 9.60 out of 12
Air Quality Not available.
Flu Activity Sporadic
METAR KW22 181655Z AUTO 23005KT 10SM CLR 18/M02 A3030 RMK AO2

More Conditions Fewer Conditions

10-Day Weather Forecast

Almanac

Astronomy

Apr. 18, 2014 Rise Set
Actual Time 6:42 AM EDT 8:02 PM EDT
Civil Twilight 6:14 AM EDT 8:30 PM EDT
Nautical Twilight 5:41 AM EDT 9:03 PM EDT
Astronomical Twilight 5:07 AM EDT 9:38 PM EDT
Moon 11:45 PM EDT 9:04 AM EDT
Length of Visible Light 14h 15m
Length of Day
13h 20m
Tomorrow will be 2m 22s longer.
Waning Gibbous, 87% of the Moon is Illuminated
Today
Waning Gibbous
Apr 22
Last Quarter
Apr 29
New
May 6
First Quarter
May 14
Full

Today's Extremes

State Highs State Lows

Community

  • What's for Lunch?
    What's for Lunch?
  • SUNRISE THROUGH THE TREES.
    SUNRISE THROUGH THE TREES.
  • Dog Wood Blossoms
    Dog Wood Blossoms
  • Morning Light
    Morning Light
  • New Day
    New Day

WunderPhotos

Upload Photos

1,702,425 photos uploaded!

Nearby

Snow Depth

Station Depth Elevation
No new snow has been reported.

Coastal Water Temperatures

Place Temperature
No Stations Reporting

Earthquake Activity

City Distance Mag. Time & Date
No recent earthquake activity has been reported nearby.
Minimum magnitude displayed is 2.5.

Nearby Weather Stations

Station Location Temp. Heat Index Dew Point Humidity Wind Precip. Elev Updated Type
Frame Circle, Gassaway, WV 70.4 °F 76 °F 35 °F 27% WSW  at  2.8 mph 0.00 in / hr 945 ft 1:20 PM EDT Rapid Fire
Brooklyn Point, Glenville, WV 76.1 °F 77 °F 36 °F 23% SSE  at  5.3 mph - / hr 820 ft 12:16 PM CDT Normal
Arnoldsburg, WV 68.6 °F - 39 °F 34% West  at  4.0 mph 0.36 in / hr 1060 ft 1:00 PM EDT Normal

Show More Stations Show Fewer Stations

What do you think?

We're not finished. Please let us know what you like, what you don't like, and what you are still missing.